Time;durP1;ratioP1;P1;durP2;ratioP2;P2;SDS_P1;SDS_P2;PMS_P1;PMS_P2;Temp;Humidity;BMP_temperature;BMP_pressure;BME280_temperature;BME280_humidity;BME280_pressure;Samples;Min_cycle;Max_cycle;Signal;HPM_P1;HPM_P2
2022/12/29 00:01:41;;;;;;;5.50;2.67;;;;;;;10.98;100.00;100027.97;5041613;28;20139;-74
2022/12/29 00:04:06;;;;;;;3.00;2.30;;;;;;;10.95;100.00;100017.47;5039930;28;20029;-74
2022/12/29 00:06:32;;;;;;;9.13;2.42;;;;;;;11.05;100.00;100006.88;5045811;28;20017;-74
2022/12/29 00:08:58;;;;;;;6.15;2.40;;;;;;;11.01;100.00;100000.13;5039009;28;20029;-74
2022/12/29 00:11:25;;;;;;;18.23;2.70;;;;;;;11.05;100.00;100004.13;5039201;28;20396;-74
2022/12/29 00:16:37;;;;;;;3.70;1.63;;;;;;;11.01;100.00;99984.56;5043660;28;20032;-75
2022/12/29 00:19:04;;;;;;;6.22;2.30;;;;;;;11.01;99.68;99983.69;5037130;28;20435;-73
2022/12/29 00:35:09;;;;;;;4.20;1.77;;;;;;;10.95;100.00;99965.41;5041767;28;20040;-73
2022/12/29 00:45:57;;;;;;;6.30;2.30;;;;;;;10.77;100.00;99955.19;5040466;28;20174;-75
2022/12/29 00:51:07;;;;;;;3.78;1.48;;;;;;;10.61;100.00;99963.94;5038801;28;20105;-74
2022/12/29 00:53:33;;;;;;;4.25;1.88;;;;;;;10.56;100.00;99955.53;5033489;28;20116;-74
2022/12/29 00:55:58;;;;;;;6.18;2.15;;;;;;;10.54;100.00;99948.59;5039748;28;20153;-74
2022/12/29 00:58:27;;;;;;;11.27;2.40;;;;;;;10.51;100.00;99941.66;5038367;28;20037;-74
2022/12/29 01:01:01;;;;;;;6.10;2.10;;;;;;;10.51;100.00;99940.81;5038987;28;21638;-73
2022/12/29 01:03:26;;;;;;;4.10;1.92;;;;;;;10.50;100.00;99930.91;5039649;28;20787;-74
2022/12/29 01:05:51;;;;;;;3.53;2.00;;;;;;;10.53;100.00;99934.06;5040454;28;20068;-75
2022/12/29 01:08:17;;;;;;;3.13;2.83;;;;;;;10.50;100.00;99941.84;5040373;28;20025;-74
2022/12/29 01:10:42;;;;;;;2.00;1.77;;;;;;;10.46;100.00;99946.94;5033795;28;20047;-73
2022/12/29 01:13:07;;;;;;;2.58;2.20;;;;;;;10.46;100.00;99959.81;5034218;28;20172;-73
2022/12/29 01:15:33;;;;;;;4.57;1.92;;;;;;;10.49;100.00;99945.66;5037601;28;20028;-75
2022/12/29 01:17:58;;;;;;;3.35;2.30;;;;;;;10.47;100.00;99961.47;5036728;28;20382;-74
2022/12/29 01:20:23;;;;;;;2.58;2.00;;;;;;;10.53;100.00;99958.72;5024610;28;20040;-74
2022/12/29 01:22:49;;;;;;;3.83;2.20;;;;;;;10.49;100.00;99946.50;5034454;28;20912;-74
2022/12/29 01:25:14;;;;;;;2.67;2.47;;;;;;;10.50;100.00;99955.53;5039915;28;20111;-73
2022/12/29 01:27:40;;;;;;;4.93;1.95;;;;;;;10.53;100.00;99952.38;5031370;28;20025;-75
2022/12/29 01:30:07;;;;;;;4.80;2.00;;;;;;;10.56;100.00;99951.97;5041103;28;20480;-73
2022/12/29 01:32:32;;;;;;;3.03;1.95;;;;;;;10.51;100.00;99938.91;5043145;28;20024;-74
2022/12/29 01:34:57;;;;;;;3.20;1.65;;;;;;;10.54;100.00;99941.22;5038844;28;20638;-74
2022/12/29 01:37:23;;;;;;;5.40;1.90;;;;;;;10.53;100.00;99934.06;5036365;28;20056;-73
2022/12/29 01:39:48;;;;;;;2.70;1.58;;;;;;;10.49;100.00;99937.44;5036723;28;20033;-74
2022/12/29 01:42:18;;;;;;;4.55;1.58;;;;;;;10.51;100.00;99949.88;5033012;28;20028;-75
2022/12/29 01:44:51;;;;;;;4.78;1.70;;;;;;;10.53;100.00;99936.81;5038932;28;20071;-73
2022/12/29 01:47:25;;;;;;;2.15;1.30;;;;;;;10.52;100.00;99945.25;5037472;28;20053;-73
2022/12/29 01:49:54;;;;;;;1.65;1.20;;;;;;;10.51;100.00;99946.31;5039016;28;20493;-75
2022/12/29 01:52:20;;;;;;;2.78;1.60;;;;;;;10.51;100.00;99943.56;5030125;28;20526;-74
2022/12/29 01:54:51;;;;;;;3.43;1.70;;;;;;;10.44;100.00;99945.47;5035853;28;20025;-75
2022/12/29 01:57:24;;;;;;;2.35;1.50;;;;;;;10.46;100.00;99944.19;5033549;28;20029;-75
2022/12/29 01:59:56;;;;;;;6.18;2.15;;;;;;;10.45;100.00;99938.94;5034172;28;20047;-74
2022/12/29 02:02:23;;;;;;;5.30;1.23;;;;;;;10.48;100.00;99946.72;5032768;28;20132;-73
2022/12/29 02:04:48;;;;;;;2.15;1.10;;;;;;;10.47;100.00;99966.97;5034846;28;20036;-73
2022/12/29 02:07:19;;;;;;;4.57;1.57;;;;;;;10.50;100.00;99955.53;5037773;28;20560;-74
2022/12/29 02:09:49;;;;;;;2.50;1.05;;;;;;;10.51;100.00;99954.50;5033866;28;20024;-75
2022/12/29 02:12:16;;;;;;;7.30;1.70;;;;;;;10.53;100.00;99952.38;5036068;28;20031;-74
2022/12/29 02:14:42;;;;;;;;;;;;;;;10.51;100.00;99957.25;5037810;28;20074;-75
2022/12/29 02:17:25;;;;;;;9.27;2.30;;;;;;;10.47;100.00;99959.56;5040230;28;19924;-75
2022/12/29 02:20:24;;;;;;;6.45;1.30;;;;;;;10.43;100.00;99957.50;5040435;28;20569;-74
2022/12/29 02:23:05;;;;;;;2.65;0.98;;;;;;;10.44;100.00;99970.97;5039035;28;20040;-74
2022/12/29 02:25:39;;;;;;;2.60;1.05;;;;;;;10.45;100.00;99964.44;5039109;28;20083;-74
2022/12/29 02:28:24;;;;;;;6.07;1.40;;;;;;;10.41;100.00;99949.50;5031187;28;20338;-75
2022/12/29 02:31:23;;;;;;;3.33;1.45;;;;;;;10.38;100.00;99940.88;5039138;28;20030;-74
2022/12/29 02:34:17;;;;;;;3.22;1.30;;;;;;;10.28;100.00;99954.19;5037434;28;20033;-74
2022/12/29 02:36:53;;;;;;;3.00;0.90;;;;;;;10.15;100.00;99954.25;5030520;28;20033;-74
2022/12/29 02:39:50;;;;;;;2.65;1.20;;;;;;;10.13;100.00;99956.34;5038962;28;20050;-74
2022/12/29 02:42:36;;;;;;;4.45;1.23;;;;;;;10.10;100.00;99962.28;5036256;28;20120;-74
2022/12/29 02:45:10;;;;;;;2.80;1.00;;;;;;;10.08;100.00;99961.66;5035653;28;20494;-74
2022/12/29 02:47:47;;;;;;;8.85;1.27;;;;;;;10.07;100.00;99963.53;5037749;28;20105;-76
2022/12/29 02:50:23;;;;;;;6.57;1.27;;;;;;;10.06;100.00;99966.47;5035030;28;20064;-74
2022/12/29 02:52:58;;;;;;;5.68;1.30;;;;;;;10.05;100.00;99942.91;5032739;28;20103;-73
2022/12/29 02:55:23;;;;;;;5.43;1.13;;;;;;;10.01;100.00;99947.09;5035357;28;20028;-74
2022/12/29 02:58:06;;;;;;;5.75;1.27;;;;;;;9.93;100.00;99947.34;5031514;28;20515;-74
2022/12/29 03:00:32;;;;;;;4.15;1.10;;;;;;;9.89;100.00;99955.16;5037468;28;20434;-74
2022/12/29 03:03:06;;;;;;;4.10;1.47;;;;;;;9.88;100.00;99955.38;5036052;28;20037;-73
2022/12/29 03:05:59;;;;;;;4.20;1.00;;;;;;;9.80;100.00;99944.63;5034810;28;20437;-75
2022/12/29 03:08:51;;;;;;;3.97;1.65;;;;;;;9.79;100.00;99941.09;5029997;28;20112;-74
2022/12/29 03:17:23;;;;;;;9.38;1.42;;;;;;;9.69;100.00;99937.94;5039453;28;20078;-75
2022/12/29 03:19:51;;;;;;;6.03;1.48;;;;;;;9.68;100.00;99946.34;5039555;28;20053;-72
2022/12/29 03:22:30;;;;;;;4.70;1.38;;;;;;;9.62;100.00;99937.09;5039596;28;20040;-73
2022/12/29 03:25:10;;;;;;;8.55;1.50;;;;;;;9.69;100.00;99928.88;5034983;28;20080;-73
2022/12/29 03:27:44;;;;;;;4.32;1.38;;;;;;;9.71;100.00;99938.56;5030807;28;20037;-73
2022/12/29 03:30:10;;;;;;;6.70;1.73;;;;;;;9.78;100.00;99944.84;5037640;28;20029;-73
2022/12/29 03:32:46;;;;;;;10.77;2.10;;;;;;;9.83;100.00;99944.22;5031537;28;20511;-75
2022/12/29 03:35:14;;;;;;;6.78;1.80;;;;;;;9.91;100.00;99944.81;5032724;28;21350;-74
2022/12/29 03:38:06;;;;;;;3.33;1.33;;;;;;;9.93;100.00;99942.72;5031726;28;20033;-73
2022/12/29 03:40:34;;;;;;;9.15;1.60;;;;;;;9.98;100.00;99945.63;5033001;28;20030;-73
2022/12/29 03:43:01;;;;;;;4.22;1.50;;;;;;;10.03;100.00;99955.94;5031068;28;20025;-72
2022/12/29 03:45:26;;;;;;;5.80;1.45;;;;;;;10.13;100.00;99946.25;5037504;28;20072;-73
2022/12/29 03:47:53;;;;;;;7.10;1.60;;;;;;;10.17;100.00;99946.66;5034194;28;20065;-75
2022/12/29 03:50:18;;;;;;;8.95;1.73;;;;;;;10.24;99.49;99956.53;5032166;28;20557;-77
2022/12/29 03:52:44;;;;;;;6.90;2.05;;;;;;;10.19;99.43;99942.66;5032841;28;20038;-77
2022/12/29 03:55:09;;;;;;;7.30;1.90;;;;;;;10.12;99.36;99949.19;5039521;28;20029;-77
2022/12/29 03:57:34;;;;;;;9.95;1.85;;;;;;;10.03;99.06;99948.56;5039214;28;20076;-76
2022/12/29 04:00:00;;;;;;;11.75;2.40;;;;;;;10.05;98.09;99954.72;5038733;28;20051;-75
2022/12/29 04:02:25;;;;;;;8.38;1.52;;;;;;;9.99;97.66;99947.31;5035259;28;20476;-75
2022/12/29 04:04:51;;;;;;;11.83;1.87;;;;;;;9.95;97.42;99947.97;5035006;28;20533;-76
2022/12/29 04:07:17;;;;;;;10.50;1.70;;;;;;;9.90;97.36;99950.50;5042454;28;20039;-75
2022/12/29 04:09:42;;;;;;;15.52;1.58;;;;;;;9.85;97.16;99962.09;5039831;28;20067;-75
2022/12/29 04:12:08;;;;;;;11.90;2.30;;;;;;;9.79;97.72;99975.78;5035225;28;20120;-76
2022/12/29 04:14:33;;;;;;;15.63;2.72;;;;;;;9.75;97.87;99969.06;5038435;28;20024;-75
2022/12/29 04:16:58;;;;;;;10.95;2.85;;;;;;;9.76;98.38;99971.56;5034020;28;20392;-76
2022/12/29 04:19:24;;;;;;;11.32;3.17;;;;;;;9.79;97.90;99979.38;5039211;28;20049;-75
2022/12/29 04:21:49;;;;;;;12.13;2.40;;;;;;;9.72;98.41;99966.75;5035720;28;20563;-76
2022/12/29 04:24:15;;;;;;;12.32;1.95;;;;;;;9.67;98.43;99959.19;5040253;28;20029;-76
2022/12/29 04:26:41;;;;;;;11.63;2.07;;;;;;;9.64;98.66;99961.50;5038413;28;20057;-76
2022/12/29 04:29:06;;;;;;;10.40;2.93;;;;;;;9.66;98.55;99960.22;5035996;28;20104;-76
2022/12/29 04:31:32;;;;;;;9.50;2.55;;;;;;;9.55;99.45;99955.41;5032472;28;20508;-75
2022/12/29 04:33:57;;;;;;;12.68;2.30;;;;;;;9.64;98.10;99964.22;5033463;28;20073;-75
2022/12/29 04:36:23;;;;;;;16.40;2.00;;;;;;;9.63;97.80;99965.28;5040670;28;20033;-76
2022/12/29 04:38:48;;;;;;;8.50;1.50;;;;;;;9.61;97.30;99951.00;5038913;28;20056;-75
2022/12/29 04:41:14;;;;;;;9.63;1.25;;;;;;;9.47;98.21;99960.28;5037793;28;20641;-74
2022/12/29 04:43:39;;;;;;;20.23;2.80;;;;;;;9.55;97.37;99962.81;5033347;28;20032;-76
2022/12/29 04:46:05;;;;;;;14.70;3.30;;;;;;;9.49;97.45;99966.34;5037254;28;20437;-76
2022/12/29 04:48:31;;;;;;;14.50;2.00;;;;;;;9.53;97.33;99959.41;5029492;28;20499;-75
2022/12/29 04:50:56;;;;;;;10.27;2.80;;;;;;;9.51;96.70;99973.28;5037105;28;20036;-76
2022/12/29 04:53:22;;;;;;;25.70;1.90;;;;;;;9.53;97.35;99963.00;5038886;28;20029;-76
2022/12/29 04:55:52;;;;;;;10.27;2.13;;;;;;;9.59;96.55;99980.44;5034072;28;20033;-75
2022/12/29 04:58:18;;;;;;;13.85;2.17;;;;;;;9.61;96.25;99978.34;5036975;28;20033;-75
2022/12/29 05:00:44;;;;;;;15.23;2.78;;;;;;;9.61;96.03;99978.34;5039706;28;20021;-75
2022/12/29 05:03:09;;;;;;;11.65;2.70;;;;;;;9.59;96.31;99975.81;5038461;28;20031;-76
2022/12/29 05:05:35;;;;;;;12.50;2.10;;;;;;;9.60;96.24;99976.66;5034403;28;20052;-76
2022/12/29 05:08:00;;;;;;;12.85;2.42;;;;;;;9.59;96.13;99973.09;5034660;28;20100;-76
2022/12/29 05:10:25;;;;;;;10.23;2.60;;;;;;;9.63;95.91;99976.22;5034639;28;20041;-76
2022/12/29 05:12:51;;;;;;;12.98;2.20;;;;;;;9.67;95.57;99966.56;5030069;28;20489;-76
2022/12/29 05:15:16;;;;;;;14.40;2.80;;;;;;;9.71;95.35;99971.38;5040136;28;20816;-76
2022/12/29 05:17:42;;;;;;;16.20;2.40;;;;;;;9.74;94.63;99983.78;5034127;28;20509;-76
2022/12/29 05:20:07;;;;;;;16.85;2.45;;;;;;;9.77;93.97;99975.16;5032602;28;20037;-75
2022/12/29 05:22:33;;;;;;;22.08;2.30;;;;;;;9.73;93.86;99965.69;5037606;28;20021;-75
2022/12/29 05:24:58;;;;;;;14.00;2.55;;;;;;;9.84;92.74;99993.25;5037293;28;20041;-76
2022/12/29 05:27:24;;;;;;;13.30;2.53;;;;;;;9.83;92.52;99980.59;5035051;28;20033;-76
2022/12/29 05:29:49;;;;;;;12.05;2.33;;;;;;;9.89;91.69;99987.97;5038993;28;20025;-75
2022/12/29 05:32:14;;;;;;;15.65;2.70;;;;;;;9.80;92.74;99985.66;5034062;28;20448;-75
2022/12/29 05:34:40;;;;;;;21.77;2.50;;;;;;;9.81;91.94;100017.41;5035294;28;20031;-75
2022/12/29 05:37:05;;;;;;;18.27;2.95;;;;;;;9.84;91.47;99995.13;5036351;28;20116;-76
2022/12/29 05:39:31;;;;;;;23.08;2.90;;;;;;;9.87;91.21;99994.72;5033245;28;20045;-76
2022/12/29 05:41:56;;;;;;;18.08;2.85;;;;;;;9.83;90.91;99987.97;5033040;28;20117;-76
2022/12/29 05:44:22;;;;;;;19.58;3.28;;;;;;;9.87;90.58;100000.19;5036061;28;20128;-75
2022/12/29 05:46:47;;;;;;;24.00;2.85;;;;;;;9.87;90.73;99991.97;5040538;28;20047;-76
2022/12/29 05:49:12;;;;;;;15.80;2.70;;;;;;;9.88;90.55;99996.38;5040243;28;20079;-74
2022/12/29 05:51:38;;;;;;;14.20;3.67;;;;;;;9.90;89.53;99988.81;5039785;28;20470;-77
2022/12/29 05:54:04;;;;;;;12.67;2.47;;;;;;;9.87;90.46;100002.91;5035419;28;20429;-76
2022/12/29 05:56:30;;;;;;;15.55;2.67;;;;;;;9.87;90.15;100002.91;5032661;28;20063;-77
2022/12/29 05:58:55;;;;;;;13.75;3.05;;;;;;;9.87;89.93;100002.91;5041592;28;20124;-79
2022/12/29 06:01:20;;;;;;;11.93;2.17;;;;;;;9.83;91.03;100007.13;5038466;28;20026;-78
2022/12/29 06:03:46;;;;;;;17.08;2.15;;;;;;;9.82;91.24;100008.19;5037637;28;20037;-80
2022/12/29 06:06:11;;;;;;;16.90;2.70;;;;;;;9.78;92.53;100037.00;5038943;28;20373;-80
2022/12/29 06:08:37;;;;;;;12.73;2.35;;;;;;;9.75;91.97;100018.28;5039637;28;20051;-76
2022/12/29 06:11:02;;;;;;;14.75;2.40;;;;;;;9.74;91.54;100030.28;5040419;28;20337;-78
2022/12/29 06:13:27;;;;;;;13.50;2.33;;;;;;;9.77;91.80;100035.34;5048125;28;20029;-78
2022/12/29 06:15:53;;;;;;;11.77;1.97;;;;;;;9.67;93.05;100057.63;5035768;28;20036;-77
2022/12/29 06:18:18;;;;;;;11.93;3.00;;;;;;;9.50;94.76;100055.53;5037358;28;20095;-78
2022/12/29 06:20:44;;;;;;;16.08;2.55;;;;;;;9.31;96.29;100050.88;5042993;28;20094;-80
2022/12/29 06:23:11;;;;;;;13.85;2.50;;;;;;;8.96;98.94;100050.19;5049794;28;20029;-79
2022/12/29 06:25:37;;;;;;;17.23;2.22;;;;;;;8.78;100.00;100043.63;5045467;28;20090;-80
2022/12/29 06:28:03;;;;;;;10.15;2.35;;;;;;;8.72;100.00;100049.91;5040882;28;20021;-79
2022/12/29 06:30:28;;;;;;;11.20;2.55;;;;;;;8.65;100.00;100057.25;5037652;28;20021;-77
2022/12/29 06:32:54;;;;;;;12.40;2.38;;;;;;;8.62;100.00;100068.56;5034328;28;20028;-78
2022/12/29 06:35:22;;;;;;;14.95;2.45;;;;;;;8.60;100.00;100068.75;5042494;28;20060;-78
2022/12/29 06:37:48;;;;;;;18.35;2.67;;;;;;;8.53;100.00;100080.69;5037875;28;20033;-78
2022/12/29 06:40:13;;;;;;;16.40;2.70;;;;;;;8.47;100.00;100076.91;5041326;28;20452;-77
2022/12/29 06:42:39;;;;;;;18.50;2.75;;;;;;;8.45;100.00;100079.00;5033406;28;20480;-78
2022/12/29 06:45:05;;;;;;;15.05;2.92;;;;;;;8.40;100.00;100075.16;5038536;28;20079;-79
2022/12/29 06:47:30;;;;;;;20.52;3.95;;;;;;;8.39;100.00;100070.75;5037532;28;20029;-77
2022/12/29 06:49:55;;;;;;;18.95;2.35;;;;;;;8.35;100.00;100058.56;5034890;28;20066;-77
2022/12/29 06:52:21;;;;;;;13.13;2.33;;;;;;;8.36;100.00;100052.91;5040763;28;20021;-78
2022/12/29 06:54:46;;;;;;;21.33;4.18;;;;;;;8.50;100.00;100053.81;5038911;28;20032;-78
2022/12/29 06:57:11;;;;;;;16.05;2.42;;;;;;;8.51;100.00;100058.22;5040186;28;20024;-78
2022/12/29 06:59:37;;;;;;;11.70;2.75;;;;;;;8.53;100.00;100062.44;5036528;28;20034;-77
2022/12/29 07:02:02;;;;;;;20.58;3.10;;;;;;;8.48;100.00;100066.84;5036918;28;20116;-77
2022/12/29 07:04:28;;;;;;;17.55;2.60;;;;;;;8.56;100.00;100072.09;5035901;28;20489;-77
2022/12/29 07:06:54;;;;;;;14.45;2.92;;;;;;;8.52;100.00;100071.66;5033041;28;20033;-78
2022/12/29 07:09:20;;;;;;;18.85;2.30;;;;;;;8.47;100.00;100076.03;5038042;28;20541;-77
2022/12/29 07:11:45;;;;;;;16.65;3.13;;;;;;;8.52;100.00;100073.53;5037046;28;20086;-78
2022/12/29 07:14:11;;;;;;;13.23;2.15;;;;;;;8.55;100.00;100068.50;5040217;28;20078;-77
2022/12/29 07:16:36;;;;;;;13.73;2.33;;;;;;;8.50;100.00;100062.81;5037102;28;20021;-77
2022/12/29 07:19:02;;;;;;;18.08;2.80;;;;;;;8.52;100.00;100068.09;5040464;28;20032;-77
2022/12/29 07:21:28;;;;;;;12.60;2.83;;;;;;;8.54;100.00;100064.09;5037118;28;20029;-77
2022/12/29 07:23:54;;;;;;;18.10;2.50;;;;;;;8.61;100.00;100064.16;5033981;28;20123;-78
2022/12/29 07:26:19;;;;;;;12.60;3.35;;;;;;;8.62;100.00;100061.22;5037476;28;20021;-78
2022/12/29 07:28:45;;;;;;;19.08;2.33;;;;;;;8.65;100.00;100052.59;5039758;28;20068;-77
2022/12/29 07:31:22;;;;;;;15.55;3.25;;;;;;;8.66;100.00;100064.38;5038374;28;20130;-77
2022/12/29 07:33:48;;;;;;;14.95;2.17;;;;;;;8.66;100.00;100050.72;5041262;28;20025;-78
2022/12/29 07:36:15;;;;;;;12.55;2.10;;;;;;;8.71;99.28;100059.97;5043527;28;20025;-75
2022/12/29 07:38:41;;;;;;;;;;;;;;;8.69;98.82;100080.34;5036812;28;20049;-78
2022/12/29 07:41:06;;;;;;;16.20;2.63;;;;;;;8.73;97.62;100059.78;5036041;28;19974;-78
2022/12/29 07:43:32;;;;;;;20.20;3.03;;;;;;;8.72;97.49;100056.22;5040042;28;20051;-77
2022/12/29 07:45:57;;;;;;;23.13;3.22;;;;;;;8.77;96.13;100064.63;5045706;28;20055;-77
2022/12/29 07:48:22;;;;;;;16.23;2.90;;;;;;;8.76;96.78;100075.75;5042800;28;20022;-77
2022/12/29 07:50:48;;;;;;;21.88;3.42;;;;;;;8.93;94.83;100077.06;5042059;28;20021;-79
2022/12/29 07:53:14;;;;;;;22.20;3.23;;;;;;;9.00;93.49;100075.19;5043493;28;20028;-79
2022/12/29 07:55:40;;;;;;;20.65;3.45;;;;;;;9.05;92.87;100070.81;5035265;28;20141;-78
2022/12/29 07:58:05;;;;;;;19.45;3.00;;;;;;;9.05;93.72;100068.06;5035428;28;20024;-75
2022/12/29 08:00:30;;;;;;;14.27;3.17;;;;;;;9.10;93.09;100098.34;5038724;28;20033;-78
2022/12/29 08:02:56;;;;;;;22.08;3.97;;;;;;;9.15;93.70;100076.72;5032496;28;20029;-78
2022/12/29 08:05:21;;;;;;;17.63;2.67;;;;;;;9.21;93.52;100077.75;5032372;28;20029;-79
2022/12/29 08:07:47;;;;;;;13.25;2.22;;;;;;;9.19;93.93;100093.53;5033440;28;20052;-75
2022/12/29 08:10:14;;;;;;;19.75;3.35;;;;;;;9.21;93.46;100075.03;5035417;28;20376;-78
2022/12/29 08:12:40;;;;;;;20.38;2.83;;;;;;;9.22;93.90;100072.09;5035609;28;20119;-76
2022/12/29 08:15:07;;;;;;;17.03;2.23;;;;;;;9.23;93.94;100070.22;5036378;28;20132;-77
2022/12/29 08:17:32;;;;;;;21.85;3.17;;;;;;;9.23;94.56;100070.22;5042344;28;20555;-79
2022/12/29 08:19:58;;;;;;;29.92;3.83;;;;;;;9.28;93.31;100074.00;5043056;28;20021;-78
2022/12/29 08:22:24;;;;;;;13.50;3.40;;;;;;;9.33;93.36;100076.09;5045313;28;20021;-79
2022/12/29 08:24:49;;;;;;;23.77;3.70;;;;;;;9.31;93.59;100087.25;5036849;28;20103;-79
2022/12/29 08:27:14;;;;;;;16.83;3.55;;;;;;;9.30;94.43;100087.47;5041929;28;20098;-79
2022/12/29 08:29:40;;;;;;;17.65;3.20;;;;;;;9.29;94.42;100093.97;5050606;28;20013;-79
2022/12/29 08:32:06;;;;;;;19.85;3.05;;;;;;;9.29;94.66;100094.81;5039918;28;20123;-78
2022/12/29 08:34:32;;;;;;;31.25;2.97;;;;;;;9.26;95.50;100099.84;5037651;28;20075;-77
2022/12/29 08:36:57;;;;;;;17.23;4.03;;;;;;;9.22;96.24;100088.50;5038333;28;20033;-79
2022/12/29 08:39:22;;;;;;;16.13;2.90;;;;;;;9.21;96.05;100095.00;5038247;28;20484;-79
2022/12/29 08:41:48;;;;;;;15.27;2.42;;;;;;;9.29;95.35;100102.19;5038117;28;20052;-79
2022/12/29 08:44:13;;;;;;;17.15;2.63;;;;;;;9.32;95.17;100099.88;5032807;28;20025;-78
2022/12/29 08:46:39;;;;;;;9.55;2.20;;;;;;;9.33;95.10;100108.88;5038456;28;20033;-78
2022/12/29 08:49:04;;;;;;;15.35;2.90;;;;;;;9.36;95.50;100114.81;5043028;28;20079;-77
2022/12/29 08:51:30;;;;;;;20.27;2.60;;;;;;;9.29;96.22;100133.06;5041626;28;20026;-79
2022/12/29 08:53:55;;;;;;;12.48;2.88;;;;;;;9.25;97.63;100136.44;5041143;28;20366;-77
2022/12/29 08:56:21;;;;;;;12.82;2.63;;;;;;;9.24;98.10;100132.84;5044890;28;20463;-75
2022/12/29 08:58:46;;;;;;;16.20;2.45;;;;;;;9.04;100.00;100144.75;5044315;28;20033;-77
2022/12/29 09:01:11;;;;;;;15.13;2.33;;;;;;;9.00;100.00;100148.94;5043782;28;20101;-79
2022/12/29 09:03:37;;;;;;;18.00;2.70;;;;;;;8.93;100.00;100151.66;5040475;28;20041;-78
2022/12/29 09:06:02;;;;;;;21.60;3.50;;;;;;;8.91;100.00;100159.19;5036126;28;20061;-78
2022/12/29 09:08:28;;;;;;;14.73;3.17;;;;;;;8.84;100.00;100165.69;5037281;28;20043;-79
2022/12/29 09:10:53;;;;;;;21.90;3.35;;;;;;;8.75;100.00;100172.38;5041551;28;20576;-77
2022/12/29 09:13:19;;;;;;;20.00;3.95;;;;;;;8.71;100.00;100165.63;5032395;28;20040;-77
2022/12/29 09:15:45;;;;;;;18.50;3.63;;;;;;;8.68;100.00;100182.41;5037485;28;20047;-78
2022/12/29 09:18:11;;;;;;;14.82;3.20;;;;;;;8.65;100.00;100175.44;5034477;28;20049;-75
2022/12/29 09:20:37;;;;;;;12.38;2.25;;;;;;;8.59;100.00;100195.38;5037260;28;20067;-77
2022/12/29 09:23:02;;;;;;;22.05;3.17;;;;;;;8.60;100.00;100188.84;5031528;28;20045;-76
2022/12/29 09:25:28;;;;;;;27.67;3.10;;;;;;;8.56;100.00;100222.22;5039954;28;20285;-77
2022/12/29 09:27:54;;;;;;;15.27;3.35;;;;;;;8.52;100.00;100220.94;5030174;28;20377;-76
2022/12/29 09:30:22;;;;;;;19.52;4.10;;;;;;;8.41;100.00;100226.94;5029207;28;20033;-75
2022/12/29 09:32:48;;;;;;;21.48;3.38;;;;;;;8.35;100.00;100214.09;5034167;28;20121;-76
2022/12/29 09:35:15;;;;;;;15.65;3.10;;;;;;;8.31;100.00;100240.94;5032999;28;20031;-77
2022/12/29 09:37:40;;;;;;;14.27;4.22;;;;;;;8.26;100.00;100242.56;5031773;28;20029;-80
2022/12/29 09:40:07;;;;;;;12.35;2.90;;;;;;;8.28;100.00;100241.31;5033269;28;20910;-77
2022/12/29 09:42:45;;;;;;;18.42;3.65;;;;;;;8.37;100.00;100233.81;5028953;28;20025;-75
2022/12/29 09:45:27;;;;;;;8.10;2.45;;;;;;;8.42;100.00;100237.66;5038155;28;20481;-77
2022/12/29 09:47:53;;;;;;;7.30;2.15;;;;;;;8.56;100.00;100252.25;5037094;28;20045;-77
2022/12/29 09:50:33;;;;;;;11.82;2.33;;;;;;;8.65;100.00;100230.03;5036002;28;20020;-77
2022/12/29 09:53:15;;;;;;;14.70;2.60;;;;;;;8.70;100.00;100241.22;5044491;28;20040;-77
2022/12/29 09:55:44;;;;;;;18.30;3.05;;;;;;;8.73;100.00;100245.44;5038235;28;20071;-75
2022/12/29 09:58:19;;;;;;;11.25;2.83;;;;;;;8.75;100.00;100246.09;5042049;28;20113;-77
2022/12/29 10:00:53;;;;;;;12.45;2.72;;;;;;;8.72;100.00;100251.94;5040590;28;20029;-77
2022/12/29 10:03:20;;;;;;;18.17;3.03;;;;;;;8.75;100.00;100254.28;5037054;28;20033;-77
2022/12/29 10:05:50;;;;;;;21.45;3.53;;;;;;;8.75;100.00;100266.03;5044324;28;20060;-77
2022/12/29 10:09:00;;;;;;;16.77;3.85;;;;;;;8.79;100.00;100264.59;5047182;28;20038;-77
2022/12/29 10:11:51;;;;;;;20.00;3.83;;;;;;;8.80;100.00;100279.09;5023453;28;20040;-78
2022/12/29 10:14:25;;;;;;;23.58;3.75;;;;;;;8.86;100.00;100281.84;5028183;28;20036;-79
2022/12/29 10:17:24;;;;;;;24.30;4.20;;;;;;;8.94;100.00;100269.94;5040941;28;20784;-77
2022/12/29 10:19:56;;;;;;;;;;;;;;;8.96;100.00;100285.06;5042759;28;20029;-79
2022/12/29 10:22:48;;;;;;;24.10;3.55;;;;;;;8.97;100.00;100283.19;5039751;28;19913;-76
2022/12/29 10:25:20;;;;;;;26.63;4.53;;;;;;;8.97;100.00;100292.22;5038593;28;20029;-78
2022/12/29 10:27:52;;;;;;;27.15;3.58;;;;;;;8.99;100.00;100303.81;5037397;28;20029;-78
2022/12/29 10:30:18;;;;;;;20.17;3.42;;;;;;;9.05;100.00;100313.94;5034461;28;20403;-76
2022/12/29 10:33:01;;;;;;;18.30;3.45;;;;;;;9.08;100.00;100304.50;5034690;28;20029;-77
2022/12/29 10:35:35;;;;;;;30.90;5.13;;;;;;;9.08;100.00;100310.78;5028523;28;20053;-78
2022/12/29 10:38:19;;;;;;;23.85;5.22;;;;;;;9.09;100.00;100320.69;5030435;28;20095;-76
2022/12/29 10:40:56;;;;;;;32.30;4.80;;;;;;;9.08;100.00;100320.88;5032602;28;20040;-79
2022/12/29 10:43:55;;;;;;;27.90;4.17;;;;;;;9.17;100.00;100325.97;5031604;28;20306;-77
2022/12/29 10:46:28;;;;;;;21.20;4.70;;;;;;;9.30;100.00;100320.56;5016675;28;20044;-77
2022/12/29 10:48:53;;;;;;;25.58;5.10;;;;;;;9.35;100.00;100328.19;5037233;28;20128;-76
2022/12/29 10:51:24;;;;;;;20.48;3.47;;;;;;;9.47;100.00;100326.56;5027961;28;20791;-77
2022/12/29 10:54:04;;;;;;;35.00;5.20;;;;;;;9.52;100.00;100329.53;5034991;28;20037;-77
2022/12/29 10:56:40;;;;;;;32.45;4.90;;;;;;;9.44;100.00;100335.19;5032180;28;20578;-78
2022/12/29 10:59:30;;;;;;;23.30;4.22;;;;;;;9.44;100.00;100344.22;5039895;28;20437;-77
2022/12/29 11:01:55;;;;;;;24.27;4.38;;;;;;;9.39;100.00;100354.91;5037265;28;20457;-77
2022/12/29 11:04:44;;;;;;;29.17;4.13;;;;;;;9.37;100.00;100354.28;5034441;28;20117;-78
2022/12/29 11:07:11;;;;;;;29.92;4.10;;;;;;;9.33;100.00;100371.25;5030592;28;20036;-78
2022/12/29 11:09:39;;;;;;;24.10;4.25;;;;;;;9.30;100.00;100366.22;5032539;28;20473;-77
2022/12/29 11:12:25;;;;;;;30.85;5.53;;;;;;;9.28;100.00;100380.06;5037672;28;20079;-77
2022/12/29 11:15:01;;;;;;;30.23;4.22;;;;;;;9.32;100.00;100383.25;5030416;28;20604;-77
2022/12/29 11:17:26;;;;;;;25.08;4.18;;;;;;;9.33;100.00;100376.72;5034686;28;20381;-78
2022/12/29 11:19:52;;;;;;;27.00;5.07;;;;;;;9.34;100.00;100386.63;5033932;28;20033;-77
2022/12/29 11:22:27;;;;;;;36.67;6.47;;;;;;;9.31;100.00;100381.56;5030594;28;20037;-78
2022/12/29 11:24:54;;;;;;;31.58;4.10;;;;;;;9.34;100.00;100389.38;5036260;28;20024;-77
2022/12/29 11:27:23;;;;;;;;;;;;;;;9.38;100.00;100382.44;5038486;28;20035;-77
2022/12/29 11:29:51;;;;;;;31.67;4.65;;;;;;;9.40;100.00;100399.50;5032623;28;20048;-77
2022/12/29 11:32:29;;;;;;;21.10;4.05;;;;;;;9.43;100.00;100390.88;5033563;28;20036;-77
2022/12/29 11:34:55;;;;;;;32.70;6.60;;;;;;;9.47;100.00;100395.75;5033409;28;20136;-78
2022/12/29 11:37:25;;;;;;;28.70;5.05;;;;;;;9.49;100.00;100403.72;5033625;28;20079;-78
2022/12/29 11:40:04;;;;;;;29.58;5.43;;;;;;;9.53;100.00;100405.88;5036548;28;20048;-78
2022/12/29 11:42:40;;;;;;;32.20;5.25;;;;;;;9.57;100.00;100404.44;5028107;28;20048;-78
2022/12/29 11:45:27;;;;;;;30.13;4.18;;;;;;;9.57;100.00;100404.44;5037387;28;20079;-77
2022/12/29 11:48:17;;;;;;;27.42;4.20;;;;;;;9.73;100.00;100408.72;5041133;28;20037;-78
2022/12/29 11:50:51;;;;;;;21.42;3.92;;;;;;;10.05;100.00;100397.13;5032245;28;20086;-77
2022/12/29 11:53:23;;;;;;;27.33;3.67;;;;;;;10.38;100.00;100406.28;5033604;28;20064;-77
2022/12/29 11:55:58;;;;;;;26.05;3.78;;;;;;;10.33;100.00;100406.03;5037544;28;20120;-78
2022/12/29 11:58:36;;;;;;;18.77;5.03;;;;;;;10.16;100.00;100418.41;5028742;28;20033;-77
2022/12/29 12:01:16;;;;;;;24.08;4.65;;;;;;;10.01;100.00;100431.38;5027432;28;20028;-77
2022/12/29 12:04:00;;;;;;;27.95;5.60;;;;;;;9.85;100.00;100424.38;5027016;28;20056;-77
2022/12/29 12:06:27;;;;;;;24.83;4.07;;;;;;;9.80;100.00;100428.75;5038430;28;20021;-78
2022/12/29 12:09:42;;;;;;;29.92;4.68;;;;;;;9.83;100.00;100417.41;5033177;28;20500;-78